Strona główna
METAR-TAF:

METAR-TAF

Lotnisko :

Harrisburg, Pensylwania, Stany Zjednoczone

Szerokość geograficzna: 40-13-02N, Długość geograficzna: 076-51-05W, wysokość: 106 m

Aktualna obserwacja pogody

Raport powstał 25 minut temu, godzina 03:56 UTC
Wiatr 6 kt od wschodnio-północny wschód
Temperatura 8°C
Wilgotność 71%
Ciśnienie 1011 hPa
Widzialność: 16.1 km
Zachmurzenie całkowite na wysokości 2000 ft

METAR: KCXY 010356Z AUTO 07006KT 10SM OVC020 08/03 A2986 RMK AO2 SLP115 T00780028

czas: 00:21 (04:21 UTC)


TAF: brakujący

Obserwacja i prognoza pogody dla ponad 4000 lotnisk (raport METAR i TAF).

Dostępne stacje oznaczono żółtymi i czerwonymi punktami na mapie.

Najedź kursorem aby zobaczyć nazwę stacji.

Kliknij aby zobaczyć obserwacje i prognozy pogody.

Aby zmienić mapę: kliknij na zielony przycisk z czarnym krzyżykiem, aby powiększyć; na zielony przycisk z myślnikiem, aby pomniejszyć; na zielone strzałki, aby przejść do map sąsiednich.


METAR-TAF: